Time;durP1;ratioP1;P1;durP2;ratioP2;P2;SDS_P1;SDS_P2;PMS_P1;PMS_P2;Temp;Humidity;BMP_temperature;BMP_pressure;BME280_temperature;BME280_humidity;BME280_pressure;Samples;Min_cycle;Max_cycle;Signal;HPM_P1;HPM_P2
2021/01/27 00:01:47;;;;;;;5.78;2.75;;;;;;;-0.23;70.21;95574.06;5030938;28;20474;-68
2021/01/27 00:04:12;;;;;;;4.07;2.47;;;;;;;0.01;70.04;95567.06;5031265;28;20521;-68
2021/01/27 00:06:37;;;;;;;4.13;2.95;;;;;;;0.05;69.12;95563.72;5030992;28;20369;-67
2021/01/27 00:09:03;;;;;;;5.50;3.33;;;;;;;0.23;69.21;95589.78;5032669;28;20039;-68
2021/01/27 00:11:28;;;;;;;2.63;2.28;;;;;;;0.02;69.16;95573.88;5030696;28;20072;-69
2021/01/27 00:13:54;;;;;;;5.05;2.65;;;;;;;0.01;69.05;95570.47;5030759;28;20037;-70
2021/01/27 00:16:19;;;;;;;3.65;2.78;;;;;;;-0.18;69.87;95572.38;5012926;28;20045;-68
2021/01/27 00:18:44;;;;;;;4.38;2.63;;;;;;;-0.11;68.97;95567.81;5030391;28;20033;-69
2021/01/27 00:21:10;;;;;;;5.13;2.60;;;;;;;0.04;68.70;95580.44;5032587;28;20117;-67
2021/01/27 00:23:35;;;;;;;4.18;2.60;;;;;;;0.13;68.63;95581.72;5030566;28;20492;-67
2021/01/27 00:26:00;;;;;;;3.15;2.22;;;;;;;-0.05;68.53;95566.94;5030906;28;20128;-68
2021/01/27 00:28:26;;;;;;;5.43;2.28;;;;;;;0.07;68.44;95576.59;5012431;28;20045;-68
2021/01/27 00:30:51;;;;;;;4.28;2.50;;;;;;;0.20;68.41;95574.53;5012572;28;20046;-68
2021/01/27 00:33:16;;;;;;;4.15;2.60;;;;;;;0.21;68.21;95567.50;5032365;28;20040;-67
2021/01/27 00:35:46;;;;;;;2.97;2.05;;;;;;;0.26;68.17;95565.00;5030553;28;20044;-68
2021/01/27 00:38:22;;;;;;;4.55;2.72;;;;;;;0.51;67.31;95557.69;5030088;28;20048;-67
2021/01/27 00:40:47;;;;;;;7.35;2.38;;;;;;;0.50;66.56;95542.19;5012628;28;20119;-68
2021/01/27 00:43:13;;;;;;;4.32;2.45;;;;;;;0.42;66.70;95526.88;5030308;28;20494;-67
2021/01/27 00:45:40;;;;;;;3.90;2.45;;;;;;;0.38;67.44;95537.00;5012698;28;20037;-68
2021/01/27 00:48:06;;;;;;;5.28;2.67;;;;;;;0.56;66.87;95543.09;5014175;28;20025;-68
2021/01/27 00:50:32;;;;;;;5.13;2.47;;;;;;;0.41;66.83;95523.47;5029967;28;20057;-69
2021/01/27 00:52:57;;;;;;;3.42;2.30;;;;;;;0.38;67.46;95534.38;5029673;28;20045;-68
2021/01/27 00:55:26;;;;;;;3.33;2.55;;;;;;;0.50;66.72;95537.75;5030035;28;20037;-67
2021/01/27 00:57:51;;;;;;;2.97;2.28;;;;;;;0.78;66.18;95546.72;5029601;28;20037;-68
2021/01/27 01:00:19;;;;;;;3.08;2.38;;;;;;;0.63;65.39;95535.94;5014425;28;20083;-68
2021/01/27 01:02:45;;;;;;;4.05;2.17;;;;;;;0.47;66.42;95522.53;5029536;28;20420;-68
2021/01/27 01:05:14;;;;;;;2.97;1.98;;;;;;;0.21;67.10;95543.97;5029868;28;20041;-68
2021/01/27 01:07:47;;;;;;;5.07;2.38;;;;;;;-0.02;67.58;95519.41;5029550;28;20048;-68
2021/01/27 01:10:24;;;;;;;4.82;2.20;;;;;;;0.23;66.84;95529.63;5011777;28;20077;-67
2021/01/27 01:12:51;;;;;;;2.70;2.08;;;;;;;0.63;66.27;95525.47;5029445;28;20435;-66
2021/01/27 01:15:17;;;;;;;6.15;2.83;;;;;;;0.52;66.01;95529.69;5014019;28;20029;-68
2021/01/27 01:17:42;;;;;;;4.60;2.45;;;;;;;0.47;66.17;95537.44;5028069;28;20041;-68
2021/01/27 01:20:14;;;;;;;3.50;1.98;;;;;;;0.58;66.48;95530.59;5029507;28;20025;-67
2021/01/27 01:22:42;;;;;;;6.07;2.75;;;;;;;0.28;66.92;95534.16;5011701;28;20123;-67
2021/01/27 01:25:09;;;;;;;7.45;2.30;;;;;;;0.38;67.51;95537.00;5029492;28;20507;-67
2021/01/27 01:27:34;;;;;;;4.22;2.20;;;;;;;0.02;67.28;95524.19;5029242;28;20101;-67
2021/01/27 01:30:00;;;;;;;2.75;2.10;;;;;;;0.06;68.12;95533.16;5031208;28;20034;-66
2021/01/27 01:32:25;;;;;;;4.53;2.05;;;;;;;0.02;67.67;95534.63;5011853;28;20678;-67
2021/01/27 01:34:50;;;;;;;3.40;2.47;;;;;;;0.40;66.76;95521.06;5029313;28;20128;-68
2021/01/27 01:37:16;;;;;;;2.70;2.22;;;;;;;0.06;67.17;95504.41;5028981;28;20056;-68
2021/01/27 01:39:41;;;;;;;3.60;2.35;;;;;;;-0.44;67.92;95483.94;5011070;28;20029;-68
2021/01/27 01:42:06;;;;;;;2.97;2.28;;;;;;;0.36;66.91;95520.75;5031047;28;20108;-68
2021/01/27 01:44:32;;;;;;;2.58;1.92;;;;;;;0.25;67.14;95511.06;5011347;28;20042;-67
2021/01/27 01:46:57;;;;;;;6.32;2.45;;;;;;;0.59;66.60;95511.25;5028723;28;20049;-68
2021/01/27 01:49:22;;;;;;;2.63;1.98;;;;;;;-0.03;68.31;95511.78;5011290;28;20049;-68
2021/01/27 01:51:58;;;;;;;5.05;2.15;;;;;;;0.40;67.38;95500.91;5028810;28;20123;-68
2021/01/27 01:54:33;;;;;;;3.90;2.53;;;;;;;0.22;67.39;95488.00;5031224;28;20036;-67
2021/01/27 01:57:03;;;;;;;5.43;2.92;;;;;;;0.40;66.75;95473.94;5011593;28;20034;-67
2021/01/27 01:59:33;;;;;;;3.72;2.63;;;;;;;0.31;66.95;95463.06;5029289;28;20045;-67
2021/01/27 02:02:02;;;;;;;3.40;2.63;;;;;;;0.68;66.17;95481.06;5011060;28;20083;-67
2021/01/27 02:04:35;;;;;;;5.57;2.88;;;;;;;0.62;66.31;95482.00;5029236;28;20095;-67
2021/01/27 02:07:01;;;;;;;3.42;2.83;;;;;;;0.67;65.88;95488.13;5028654;28;20498;-68
2021/01/27 02:09:26;;;;;;;3.25;2.33;;;;;;;0.40;65.94;95460.88;5030780;28;20041;-68
2021/01/27 02:12:16;;;;;;;5.50;2.85;;;;;;;0.73;66.17;95486.38;5010971;28;20124;-68
2021/01/27 02:14:47;;;;;;;2.95;2.30;;;;;;;0.85;65.78;95479.28;5011163;28;20116;-68
2021/01/27 02:17:32;;;;;;;2.53;2.33;;;;;;;0.83;65.70;95456.97;5028530;28;20049;-67
2021/01/27 02:20:06;;;;;;;3.60;2.83;;;;;;;0.91;65.34;95477.53;5028797;28;20048;-68
2021/01/27 02:22:53;;;;;;;4.45;2.80;;;;;;;0.70;65.55;95468.50;5028510;28;20046;-68
2021/01/27 02:25:40;;;;;;;2.30;2.08;;;;;;;0.60;65.48;95466.50;5028859;28;20037;-67
2021/01/27 02:28:10;;;;;;;3.88;2.45;;;;;;;0.39;65.90;95473.16;5028642;28;20041;-68
2021/01/27 02:30:47;;;;;;;3.25;2.47;;;;;;;0.59;65.56;95471.97;5010837;28;20041;-67
2021/01/27 02:33:21;;;;;;;6.80;2.47;;;;;;;0.33;65.50;95471.47;5030365;28;20080;-69
2021/01/27 02:36:08;;;;;;;2.95;2.55;;;;;;;0.41;65.70;95465.88;5011069;28;20053;-68
2021/01/27 02:38:40;;;;;;;2.83;2.40;;;;;;;0.15;66.42;95469.00;5028482;28;20049;-68
2021/01/27 02:41:19;;;;;;;3.55;2.67;;;;;;;0.31;65.47;95455.22;5010976;28;20129;-67
2021/01/27 02:43:51;;;;;;;3.90;2.45;;;;;;;0.36;65.77;95460.56;5012471;28;20046;-67
2021/01/27 02:46:29;;;;;;;3.47;3.05;;;;;;;0.57;65.74;95455.72;5028596;28;20057;-67
2021/01/27 02:49:05;;;;;;;5.32;2.55;;;;;;;0.15;65.25;95448.88;5010735;28;20038;-68
2021/01/27 02:51:46;;;;;;;3.78;2.55;;;;;;;0.17;65.85;95459.13;5011767;28;20390;-67
2021/01/27 02:54:18;;;;;;;2.50;2.30;;;;;;;-0.04;66.08;95445.63;5016640;28;20030;-67
2021/01/27 02:56:54;;;;;;;2.92;2.50;;;;;;;0.12;65.78;95456.41;5031907;28;20088;-67
2021/01/27 02:59:34;;;;;;;4.10;2.53;;;;;;;-0.30;65.76;95433.81;5032390;28;20076;-67
2021/01/27 03:02:21;;;;;;;4.75;2.30;;;;;;;-0.31;66.18;95426.19;5014234;28;20048;-68
2021/01/27 03:04:59;;;;;;;3.17;2.75;;;;;;;-0.52;66.59;95446.63;5032138;28;20064;-68
2021/01/27 03:07:29;;;;;;;3.15;2.13;;;;;;;-0.25;66.27;95446.22;5014145;28;20030;-67
2021/01/27 03:10:13;;;;;;;3.75;2.70;;;;;;;-0.53;66.24;95421.53;5032120;28;20376;-68
2021/01/27 03:12:39;;;;;;;3.13;2.58;;;;;;;-0.35;66.00;95440.75;5032028;28;20033;-68
2021/01/27 03:15:07;;;;;;;7.63;2.70;;;;;;;-0.32;65.90;95433.22;5016213;28;20033;-67
2021/01/27 03:17:35;;;;;;;4.10;2.72;;;;;;;-0.48;66.16;95451.41;5031551;28;20618;-67
2021/01/27 03:20:09;;;;;;;3.72;2.70;;;;;;;-0.43;65.91;95438.47;5031783;28;20404;-68
2021/01/27 03:22:45;;;;;;;4.22;3.05;;;;;;;-0.52;66.71;95440.63;5031570;28;20399;-67
2021/01/27 03:25:23;;;;;;;5.13;2.58;;;;;;;-0.45;66.33;95433.47;5031625;28;20045;-67
2021/01/27 03:28:06;;;;;;;3.55;3.03;;;;;;;-0.66;66.72;95445.28;5030805;28;20126;-67
2021/01/27 03:30:32;;;;;;;3.85;3.03;;;;;;;-0.64;66.42;95437.22;5012819;28;20033;-66
2021/01/27 03:33:01;;;;;;;6.07;2.70;;;;;;;-0.75;67.21;95441.41;5033597;28;20036;-66
2021/01/27 03:35:42;;;;;;;3.45;2.47;;;;;;;-0.77;66.90;95435.59;5031674;28;20518;-67
2021/01/27 03:38:15;;;;;;;4.82;2.53;;;;;;;-0.68;66.76;95421.19;5031233;28;20133;-67
2021/01/27 03:40:44;;;;;;;5.80;3.60;;;;;;;-0.55;66.69;95439.25;5013639;28;20488;-67
2021/01/27 03:43:30;;;;;;;9.48;3.20;;;;;;;-0.56;66.84;95431.66;5031287;28;20044;-67
2021/01/27 03:46:03;;;;;;;6.65;3.40;;;;;;;-0.70;67.21;95412.78;5013764;28;20053;-67
2021/01/27 03:48:43;;;;;;;3.88;2.88;;;;;;;-0.61;66.82;95429.72;5030871;28;20029;-67
2021/01/27 03:51:11;;;;;;;3.20;2.75;;;;;;;-0.89;67.30;95383.34;5032862;28;20038;-67
2021/01/27 03:53:36;;;;;;;3.28;2.97;;;;;;;-0.64;67.74;95430.16;5031104;28;20068;-66
2021/01/27 03:56:20;;;;;;;4.60;3.22;;;;;;;-0.73;67.39;95423.69;5030819;28;20041;-66
2021/01/27 03:58:47;;;;;;;4.70;2.70;;;;;;;-0.70;67.32;95433.69;5030920;28;20044;-66
2021/01/27 04:01:16;;;;;;;5.82;3.30;;;;;;;-0.79;67.76;95427.19;5030860;28;20076;-66
2021/01/27 04:03:42;;;;;;;3.88;3.10;;;;;;;-0.79;67.52;95422.78;5030516;28;20076;-66
2021/01/27 04:06:08;;;;;;;3.05;2.75;;;;;;;-0.83;67.49;95416.41;5032763;28;20037;-65
2021/01/27 04:08:34;;;;;;;3.83;2.67;;;;;;;-0.74;67.72;95427.31;5030578;28;20053;-66
2021/01/27 04:11:00;;;;;;;3.30;2.80;;;;;;;-0.73;67.54;95420.28;5013271;28;20487;-66
2021/01/27 04:13:26;;;;;;;5.28;2.83;;;;;;;-0.82;68.12;95415.41;5030690;28;20044;-66
2021/01/27 04:15:51;;;;;;;7.72;3.35;;;;;;;-0.74;68.12;95416.88;5030723;28;20045;-65
2021/01/27 04:18:16;;;;;;;3.13;2.40;;;;;;;-0.89;67.84;95395.63;5032290;28;20036;-66
2021/01/27 04:20:42;;;;;;;4.90;2.80;;;;;;;-0.89;67.89;95399.03;5030499;28;20068;-67
2021/01/27 04:23:08;;;;;;;3.72;2.63;;;;;;;-0.81;67.87;95411.75;5030231;28;20041;-66
2021/01/27 04:25:33;;;;;;;4.72;2.63;;;;;;;-0.90;68.14;95412.31;5030752;28;20386;-67
2021/01/27 04:27:58;;;;;;;4.00;2.50;;;;;;;-0.95;68.02;95399.13;5030395;28;20116;-66
2021/01/27 04:30:29;;;;;;;4.25;2.95;;;;;;;-0.90;68.35;95415.72;5032427;28;20083;-67
2021/01/27 04:32:55;;;;;;;5.40;2.60;;;;;;;-0.89;68.00;95419.91;5031010;28;20483;-66
2021/01/27 04:35:21;;;;;;;3.88;2.60;;;;;;;-0.91;68.07;95418.56;5030526;28;20575;-66
2021/01/27 04:37:46;;;;;;;5.22;2.65;;;;;;;-0.90;67.56;95415.72;5029920;28;20045;-65
2021/01/27 04:40:17;;;;;;;4.63;3.20;;;;;;;-0.97;68.38;95420.25;5029965;28;20076;-67
2021/01/27 04:42:42;;;;;;;4.10;2.67;;;;;;;-0.95;67.91;95409.59;5030042;28;20037;-67
2021/01/27 04:45:08;;;;;;;4.55;2.47;;;;;;;-1.14;68.06;95398.41;5032391;28;20385;-67
2021/01/27 04:47:57;;;;;;;7.07;2.70;;;;;;;-0.90;67.34;95413.09;5029691;28;20065;-67
2021/01/27 04:50:31;;;;;;;4.32;2.60;;;;;;;-1.05;67.63;95389.25;5030052;28;20064;-67
2021/01/27 04:53:11;;;;;;;3.92;2.50;;;;;;;-0.90;67.54;95405.28;5029932;28;20388;-66
2021/01/27 04:56:02;;;;;;;5.20;2.72;;;;;;;-0.95;68.19;95391.31;5030114;28;20052;-67
2021/01/27 04:58:45;;;;;;;3.13;2.20;;;;;;;-0.86;67.93;95403.03;5029836;28;20045;-68
2021/01/27 05:01:38;;;;;;;4.25;2.70;;;;;;;-0.85;68.37;95394.16;5029905;28;20412;-67
2021/01/27 05:04:18;;;;;;;6.40;2.58;;;;;;;-0.89;67.90;95388.59;5030056;28;20046;-66
2021/01/27 05:06:48;;;;;;;7.05;3.13;;;;;;;-0.91;67.75;95374.97;5029552;28;20037;-67
2021/01/27 05:09:27;;;;;;;4.45;2.47;;;;;;;-0.87;68.35;95383.94;5031774;28;20063;-67
2021/01/27 05:11:53;;;;;;;3.65;2.47;;;;;;;-0.86;67.91;95382.13;5030032;28;20053;-67
2021/01/27 05:14:20;;;;;;;6.50;2.55;;;;;;;-0.92;68.24;95375.16;5028808;28;20423;-68
2021/01/27 05:16:49;;;;;;;4.30;2.30;;;;;;;-0.93;67.97;95374.38;5029250;28;20045;-67
2021/01/27 05:19:15;;;;;;;5.28;2.20;;;;;;;-0.96;67.73;95367.00;5029371;28;20480;-68
2021/01/27 05:21:55;;;;;;;2.63;2.20;;;;;;;-1.11;67.84;95348.38;5029457;28;20025;-67
2021/01/27 05:24:20;;;;;;;3.70;2.13;;;;;;;-0.93;67.46;95376.19;5031697;28;20483;-67
2021/01/27 05:26:50;;;;;;;5.47;2.42;;;;;;;-0.93;67.87;95373.59;5029187;28;20144;-66
2021/01/27 05:29:23;;;;;;;3.97;2.47;;;;;;;-0.92;67.52;95368.16;5029506;28;20045;-67
2021/01/27 05:32:10;;;;;;;6.93;2.35;;;;;;;-0.94;67.25;95366.78;5029361;28;20034;-67
2021/01/27 05:34:40;;;;;;;5.18;2.28;;;;;;;-0.94;68.19;95364.97;5029422;28;20513;-66
2021/01/27 05:37:12;;;;;;;6.13;2.58;;;;;;;-0.95;68.08;95358.16;5028643;28;20038;-67
2021/01/27 05:39:40;;;;;;;3.60;2.08;;;;;;;-0.94;67.84;95358.94;5028757;28;20033;-67
2021/01/27 05:42:33;;;;;;;5.22;2.65;;;;;;;-1.01;67.58;95343.41;5012890;28;20029;-66
2021/01/27 05:45:27;;;;;;;4.80;2.45;;;;;;;-1.04;67.78;95351.66;5025435;28;20495;-68
2021/01/27 05:47:53;;;;;;;3.53;2.30;;;;;;;-1.07;67.71;95323.41;5028641;28;20133;-67
2021/01/27 05:50:29;;;;;;;5.45;2.17;;;;;;;-1.11;68.08;95323.06;5011050;28;20073;-67
2021/01/27 05:53:08;;;;;;;4.75;2.38;;;;;;;-1.05;67.78;95322.16;5011022;28;20461;-67
2021/01/27 05:55:33;;;;;;;3.78;1.98;;;;;;;-1.00;67.90;95336.34;5011098;28;20560;-67
2021/01/27 05:57:59;;;;;;;8.88;4.80;;;;;;;-0.98;68.04;95334.31;5028705;28;20049;-67
2021/01/27 06:00:30;;;;;;;2.90;2.58;;;;;;;-1.02;67.68;95320.94;5030859;28;20438;-69
2021/01/27 06:02:58;;;;;;;5.65;2.30;;;;;;;-1.11;67.75;95310.03;5011130;28;20030;-66
2021/01/27 06:05:37;;;;;;;7.78;2.22;;;;;;;-0.94;67.54;95330.22;5028758;28;20041;-68
2021/01/27 06:08:19;;;;;;;6.95;2.50;;;;;;;-0.92;68.04;95330.78;5028474;28;20068;-67
2021/01/27 06:10:45;;;;;;;5.60;2.35;;;;;;;-0.86;67.94;95335.13;5028610;28;20081;-68
2021/01/27 06:13:31;;;;;;;6.43;2.28;;;;;;;-0.85;67.14;95331.47;5028429;28;20046;-67
2021/01/27 06:15:57;;;;;;;7.85;2.35;;;;;;;-0.94;67.10;95309.34;5027644;28;20044;-69
2021/01/27 06:18:25;;;;;;;5.75;2.83;;;;;;;-0.79;67.54;95322.72;5030659;28;20025;-68
2021/01/27 06:21:15;;;;;;;5.82;2.70;;;;;;;-0.90;67.31;95313.09;5028365;28;20372;-68
2021/01/27 06:23:51;;;;;;;341.15;45.50;;;;;;;-0.89;66.48;95304.22;5028530;28;20406;-68
2021/01/27 06:26:58;;;;;;;781.50;199.30;;;;;;;-0.80;67.34;95313.31;5031628;28;20133;-68
2021/01/27 06:29:49;;;;;;;29.33;10.25;;;;;;;-0.80;67.02;95313.31;5010236;28;20033;-68
2021/01/27 06:32:24;;;;;;;7.70;4.15;;;;;;;-0.82;67.02;95315.34;5032373;28;20491;-67
2021/01/27 06:35:00;;;;;;;19.52;7.32;;;;;;;-0.88;66.89;95308.41;5032828;28;20722;-68
2021/01/27 06:37:54;;;;;;;15.13;5.35;;;;;;;-0.86;66.86;95307.19;5014811;28;20034;-69
2021/01/27 06:40:56;;;;;;;6.40;3.53;;;;;;;-0.75;66.58;95312.63;5016623;28;20042;-67
2021/01/27 06:43:25;;;;;;;8.23;3.25;;;;;;;-0.74;66.92;95315.00;5031945;28;20041;-67
2021/01/27 06:46:23;;;;;;;5.78;2.95;;;;;;;-0.76;66.50;95309.22;5032166;28;20030;-65
2021/01/27 06:49:09;;;;;;;7.25;3.28;;;;;;;-0.87;66.34;95292.53;5014389;28;20033;-67
2021/01/27 06:52:04;;;;;;;6.47;2.88;;;;;;;-0.69;66.92;95312.50;5014626;28;20037;-66
2021/01/27 06:54:57;;;;;;;17.60;3.17;;;;;;;-0.77;66.90;95291.94;5032495;28;20030;-66
2021/01/27 06:57:23;;;;;;;;;;;;;;;-0.61;66.50;95296.50;5034298;28;20036;-66
2021/01/27 07:00:10;;;;;;;7.93;2.47;;;;;;;-0.57;66.36;95307.25;5014228;28;19928;-67
2021/01/27 07:02:57;;;;;;;22.88;3.10;;;;;;;-0.52;66.83;95302.94;5032008;28;20053;-66
2021/01/27 07:05:32;;;;;;;7.07;3.35;;;;;;;-0.55;66.49;95290.34;5032130;28;20049;-66
2021/01/27 07:08:14;;;;;;;3.97;2.25;;;;;;;-0.42;66.01;95306.78;5031834;28;20050;-67
2021/01/27 07:10:52;;;;;;;5.70;2.78;;;;;;;-0.36;65.76;95301.44;5031801;28;20140;-66
2021/01/27 07:13:26;;;;;;;14.00;3.30;;;;;;;-0.28;65.89;95305.50;5031301;28;20511;-66
2021/01/27 07:16:29;;;;;;;5.65;2.63;;;;;;;-0.19;66.33;95304.13;5031528;28;20029;-66
2021/01/27 07:19:16;;;;;;;7.68;2.70;;;;;;;-0.14;65.64;95298.97;5031449;28;20494;-67
2021/01/27 07:21:53;;;;;;;3.67;2.40;;;;;;;-0.01;65.44;95295.28;5031317;28;20052;-67
2021/01/27 07:24:32;;;;;;;4.60;2.58;;;;;;;0.05;65.40;95294.34;5033643;28;20079;-67
2021/01/27 07:27:05;;;;;;;9.18;2.90;;;;;;;0.14;65.10;95300.00;5031680;28;20037;-67
2021/01/27 07:30:01;;;;;;;4.30;2.30;;;;;;;0.27;64.60;95296.31;5031480;28;20770;-67
2021/01/27 07:32:36;;;;;;;4.78;2.15;;;;;;;0.35;64.55;95285.47;5028073;28;20041;-65
2021/01/27 07:35:10;;;;;;;4.85;1.98;;;;;;;0.39;63.63;95279.53;5011498;28;20447;-66
2021/01/27 07:37:42;;;;;;;5.35;2.15;;;;;;;0.48;63.60;95285.97;5029940;28;20068;-66
2021/01/27 07:40:15;;;;;;;5.30;1.98;;;;;;;0.56;63.71;95273.50;5031731;28;20049;-66
2021/01/27 07:42:53;;;;;;;4.97;2.22;;;;;;;0.65;62.99;95266.84;5029561;28;20112;-66
2021/01/27 07:45:32;;;;;;;4.95;2.22;;;;;;;0.72;62.46;95255.19;5034309;28;20025;-66
2021/01/27 07:48:21;;;;;;;4.28;2.10;;;;;;;0.86;62.22;95260.88;5032108;28;20132;-66
2021/01/27 07:50:52;;;;;;;6.22;1.98;;;;;;;0.88;61.61;95243.13;5003007;28;20034;-66
2021/01/27 07:53:50;;;;;;;4.70;1.70;;;;;;;1.06;61.52;95251.75;5032034;28;20040;-71
2021/01/27 07:56:44;;;;;;;3.72;1.65;;;;;;;1.13;61.06;95247.94;5014260;28;20037;-66
2021/01/27 07:59:16;;;;;;;2.75;1.67;;;;;;;1.24;60.70;95257.50;5032059;28;20131;-66
2021/01/27 08:01:54;;;;;;;5.60;1.90;;;;;;;1.35;60.63;95257.63;5031584;28;20044;-65
2021/01/27 08:04:31;;;;;;;2.17;1.80;;;;;;;1.47;60.13;95268.78;5014116;28;20049;-67
2021/01/27 08:06:58;;;;;;;4.78;1.60;;;;;;;1.41;59.80;95239.09;5031963;28;20041;-67
2021/01/27 08:09:30;;;;;;;16.63;2.05;;;;;;;1.65;59.77;95257.22;5033788;28;20041;-66
2021/01/27 08:12:09;;;;;;;9.13;2.00;;;;;;;1.71;59.33;95249.16;5031803;28;20053;-67
2021/01/27 08:14:56;;;;;;;3.13;1.70;;;;;;;1.93;59.60;95258.84;5031670;28;20547;-67
2021/01/27 08:17:43;;;;;;;2.28;1.95;;;;;;;2.13;58.83;95256.41;5013534;28;20041;-66
2021/01/27 08:20:18;;;;;;;5.22;1.80;;;;;;;2.35;58.73;95253.72;5031116;28;20503;-66
2021/01/27 08:22:49;;;;;;;28.65;2.28;;;;;;;2.54;58.12;95239.19;5031288;28;20037;-68
2021/01/27 08:25:47;;;;;;;6.67;2.90;;;;;;;2.86;57.57;95248.88;5031686;28;20041;-70
2021/01/27 08:28:16;;;;;;;3.17;1.98;;;;;;;2.97;57.16;95232.16;5031331;28;20044;-65
2021/01/27 08:30:42;;;;;;;4.07;1.83;;;;;;;3.21;56.71;95250.16;5031193;28;20036;-69
2021/01/27 08:33:32;;;;;;;5.28;2.10;;;;;;;3.37;56.48;95249.19;5033193;28;20021;-67
2021/01/27 08:36:01;;;;;;;5.40;1.73;;;;;;;3.43;55.64;95256.09;5019685;28;20042;-72
2021/01/27 08:38:30;;;;;;;3.88;1.92;;;;;;;3.37;54.82;95239.47;5031107;28;20042;-70
2021/01/27 08:40:56;;;;;;;4.43;2.25;;;;;;;3.56;55.06;95246.91;5031382;28;20037;-66
2021/01/27 08:43:32;;;;;;;5.40;1.38;;;;;;;3.87;54.26;95258.34;5013255;28;20111;-72
2021/01/27 08:45:58;;;;;;;2.15;1.52;;;;;;;4.03;53.59;95259.97;5031283;28;20095;-69
2021/01/27 08:48:47;;;;;;;2.78;1.35;;;;;;;4.00;51.87;95263.13;5032886;28;20023;-71
2021/01/27 08:51:39;;;;;;;2.55;1.20;;;;;;;4.12;52.76;95255.78;5013098;28;20045;-74
2021/01/27 08:54:23;;;;;;;3.17;1.37;;;;;;;4.21;52.85;95268.47;5031440;28;20048;-63
2021/01/27 08:57:14;;;;;;;2.67;1.65;;;;;;;4.30;52.14;95272.97;5013035;28;20049;-74
2021/01/27 09:00:11;;;;;;;2.40;1.63;;;;;;;4.36;52.20;95271.13;5030882;28;20037;-66
2021/01/27 09:02:59;;;;;;;2.63;1.30;;;;;;;4.47;51.61;95264.03;5023530;28;20041;-68
2021/01/27 09:05:24;;;;;;;2.80;1.35;;;;;;;4.65;50.93;95260.84;5013528;28;20034;-68
2021/01/27 09:07:53;;;;;;;1.77;1.33;;;;;;;4.86;51.54;95267.72;5030711;28;20562;-70
2021/01/27 09:10:24;;;;;;;3.78;1.63;;;;;;;4.85;51.57;95213.41;5013038;28;20069;-73
2021/01/27 09:12:50;;;;;;;4.28;1.60;;;;;;;5.11;50.88;95235.25;5030673;28;20042;-76
2021/01/27 09:15:29;;;;;;;5.88;1.70;;;;;;;5.22;51.44;95262.41;5033279;28;20017;-66
2021/01/27 09:17:57;;;;;;;1.85;1.25;;;;;;;5.19;49.54;95240.00;5013392;28;20045;-63
2021/01/27 09:20:28;;;;;;;3.33;1.73;;;;;;;5.36;49.35;95250.25;5030197;28;20483;-68
2021/01/27 09:23:04;;;;;;;2.40;1.30;;;;;;;5.43;48.71;95248.13;5030329;28;20061;-69
2021/01/27 09:25:30;;;;;;;1.85;1.55;;;;;;;5.54;48.15;95258.66;5012897;28;20090;-69
2021/01/27 09:28:07;;;;;;;1.80;1.52;;;;;;;5.63;48.63;95257.81;5012221;28;20068;-70
2021/01/27 09:30:34;;;;;;;2.50;1.52;;;;;;;5.51;49.15;95233.56;5030121;28;20494;-73
2021/01/27 09:33:15;;;;;;;2.50;1.42;;;;;;;5.56;48.55;95241.47;5032110;28;20105;-67
2021/01/27 09:35:42;;;;;;;3.00;1.23;;;;;;;5.57;48.48;95244.91;5012288;28;20553;-66
2021/01/27 09:38:18;;;;;;;2.15;1.55;;;;;;;5.65;48.94;95252.28;5012220;28;20037;-65
2021/01/27 09:40:47;;;;;;;8.30;1.80;;;;;;;5.75;48.24;95260.16;5012032;28;20416;-65
2021/01/27 09:43:16;;;;;;;3.75;1.70;;;;;;;5.72;48.74;95242.22;5029945;28;20510;-66
2021/01/27 09:45:45;;;;;;;1.40;1.20;;;;;;;5.81;47.72;95235.31;5012089;28;20438;-67
2021/01/27 09:48:13;;;;;;;6.85;2.17;;;;;;;5.91;48.64;95230.00;5031712;28;20029;-67
2021/01/27 09:50:41;;;;;;;2.45;1.60;;;;;;;5.92;48.21;95233.44;5029016;28;20125;-66
2021/01/27 09:53:08;;;;;;;2.03;1.77;;;;;;;6.05;47.54;95247.91;5029650;28;20043;-67
2021/01/27 09:55:34;;;;;;;2.05;1.75;;;;;;;6.15;47.14;95258.44;5029753;28;20037;-67
2021/01/27 09:58:05;;;;;;;1.63;1.40;;;;;;;6.34;45.82;95245.34;5029729;28;20117;-67
2021/01/27 10:00:37;;;;;;;4.47;1.60;;;;;;;6.50;45.72;95237.06;5029487;28;20029;-66
2021/01/27 10:03:28;;;;;;;1.48;1.10;;;;;;;6.59;45.15;95231.19;5031634;28;20028;-67
2021/01/27 10:05:54;;;;;;;3.85;1.98;;;;;;;6.58;44.62;95224.31;5030212;28;20041;-68
2021/01/27 10:08:37;;;;;;;1.98;1.65;;;;;;;6.50;43.63;95223.06;5029345;28;20499;-67
2021/01/27 10:11:11;;;;;;;2.50;1.38;;;;;;;6.53;45.03;95219.06;5011815;28;20073;-69
2021/01/27 10:13:40;;;;;;;2.92;1.67;;;;;;;6.42;45.91;95218.34;5028989;28;20139;-68
2021/01/27 10:16:12;;;;;;;1.85;1.65;;;;;;;6.00;46.06;95151.03;5011714;28;20049;-67
2021/01/27 10:18:39;;;;;;;2.30;1.20;;;;;;;6.63;45.58;95230.34;5011153;28;20025;-67
2021/01/27 10:21:08;;;;;;;1.80;1.25;;;;;;;6.34;43.56;95211.78;5030901;28;20021;-68
2021/01/27 10:23:46;;;;;;;2.63;1.27;;;;;;;6.49;45.68;95232.03;5029368;28;20479;-70
2021/01/27 10:26:30;;;;;;;3.22;1.85;;;;;;;6.37;44.81;95236.88;5029506;28;20044;-69
2021/01/27 10:29:17;;;;;;;3.17;1.80;;;;;;;4.40;47.81;95257.16;5029112;28;20063;-70
2021/01/27 10:31:52;;;;;;;5.43;1.90;;;;;;;2.89;51.44;95234.47;5029004;28;20069;-71
2021/01/27 10:34:34;;;;;;;3.95;1.40;;;;;;;3.65;49.49;95256.69;5026169;23;20403;-69
2021/01/27 10:36:59;;;;;;;4.65;2.03;;;;;;;3.59;50.19;95239.31;5049130;28;20517;-69
2021/01/27 10:39:27;;;;;;;2.08;1.40;;;;;;;4.23;49.20;95242.66;5051258;28;20037;-68
2021/01/27 10:41:54;;;;;;;2.30;1.10;;;;;;;4.48;48.00;95242.69;5048979;28;20152;-70
2021/01/27 10:44:24;;;;;;;2.08;1.30;;;;;;;4.62;46.72;95219.25;5048934;28;20450;-69
2021/01/27 10:46:52;;;;;;;3.17;1.13;;;;;;;3.54;47.51;95201.69;5048946;28;20040;-72
2021/01/27 10:49:18;;;;;;;3.53;1.30;;;;;;;3.82;48.89;95197.81;5031275;28;20036;-69
2021/01/27 10:51:44;;;;;;;2.70;1.17;;;;;;;4.87;48.44;95205.25;5048831;28;20372;-71
2021/01/27 10:54:11;;;;;;;1.45;1.15;;;;;;;5.11;47.02;95197.56;5033282;28;20021;-68
2021/01/27 10:56:37;;;;;;;1.67;1.10;;;;;;;5.83;47.12;95219.19;5048935;28;20032;-67
2021/01/27 10:59:02;;;;;;;2.55;1.33;;;;;;;5.61;43.32;95219.56;5048976;28;20041;-73
2021/01/27 11:01:28;;;;;;;2.42;1.10;;;;;;;5.51;44.64;95199.28;5049014;28;20063;-68
2021/01/27 11:03:53;;;;;;;1.98;1.10;;;;;;;5.47;41.89;95192.97;5031123;28;20170;-68
2021/01/27 11:06:18;;;;;;;1.25;0.88;;;;;;;4.21;44.38;95198.16;5033120;28;20021;-67
2021/01/27 11:08:45;;;;;;;1.52;1.10;;;;;;;4.63;44.40;95213.69;5048438;28;20025;-68
2021/01/27 11:11:12;;;;;;;2.78;1.10;;;;;;;4.50;44.40;95214.22;5048538;28;20494;-70
2021/01/27 11:13:37;;;;;;;1.35;0.60;;;;;;;2.66;46.92;95191.75;5051879;28;20048;-71
2021/01/27 11:16:06;;;;;;;3.67;1.30;;;;;;;2.85;47.44;95155.34;5052613;28;20037;-71
2021/01/27 11:18:31;;;;;;;3.95;1.25;;;;;;;3.30;48.21;95220.50;5052695;28;20024;-73
2021/01/27 11:20:57;;;;;;;1.70;0.93;;;;;;;3.46;48.29;95207.44;5054244;28;20052;-68
2021/01/27 11:23:22;;;;;;;1.35;0.95;;;;;;;2.80;48.38;95213.13;5052503;28;20045;-67
2021/01/27 11:25:49;;;;;;;2.60;1.13;;;;;;;2.49;48.87;95199.78;5052687;28;20701;-70
2021/01/27 11:28:14;;;;;;;2.65;0.95;;;;;;;2.03;49.15;95161.88;5052440;28;20045;-69
2021/01/27 11:30:40;;;;;;;2.92;1.42;;;;;;;2.25;49.57;95190.66;5034569;28;20128;-66
2021/01/27 11:33:05;;;;;;;7.18;1.00;;;;;;;1.75;50.66;95186.53;5053978;28;20067;-67
2021/01/27 11:35:30;;;;;;;2.08;1.25;;;;;;;1.84;51.86;95200.75;5052604;28;20044;-67
2021/01/27 11:37:56;;;;;;;2.35;1.10;;;;;;;1.93;50.93;95191.41;5052172;28;20191;-67
2021/01/27 11:40:24;;;;;;;2.80;1.20;;;;;;;2.39;50.76;95206.78;5052195;28;20494;-67
2021/01/27 11:42:50;;;;;;;2.08;1.30;;;;;;;2.04;52.05;95195.72;5051828;28;20033;-66
2021/01/27 11:45:17;;;;;;;4.03;1.40;;;;;;;2.45;51.08;95177.69;5054193;28;20029;-67
2021/01/27 11:47:43;;;;;;;1.30;1.00;;;;;;;1.69;52.53;95195.34;5051539;28;20072;-67
2021/01/27 11:50:09;;;;;;;1.30;1.00;;;;;;;1.71;53.25;95191.47;5051565;28;20068;-67
2021/01/27 11:52:35;;;;;;;1.67;0.80;;;;;;;1.62;53.00;95181.66;5051599;28;20128;-68
2021/01/27 11:55:00;;;;;;;2.25;1.42;;;;;;;1.55;53.58;95166.13;5051967;28;20486;-67
2021/01/27 11:57:26;;;;;;;2.63;1.20;;;;;;;2.36;52.31;95179.22;5053455;28;20104;-66
2021/01/27 11:59:51;;;;;;;2.42;1.48;;;;;;;1.88;52.91;95172.22;5051717;28;20438;-66
2021/01/27 12:02:16;;;;;;;2.33;1.40;;;;;;;1.43;54.12;95176.72;5051347;28;20513;-66
2021/01/27 12:04:42;;;;;;;2.30;1.80;;;;;;;1.62;54.46;95182.44;5051476;28;20040;-65
2021/01/27 12:07:07;;;;;;;5.93;1.88;;;;;;;1.67;54.00;95163.38;5051546;28;20115;-66